• Join FlightAware (Why Join?)
  • Login
  • US Flag 
08:33AM EDT


 

Airport Tracker/Info


-or-


 

Live Flight TrackerFlight Track Log ✈ FDX1254 ✈ 25-Apr-2013 ✈ KPVD - KFWA

Flight Track Log - Related Links

Times and Time Zones

All times are in EDT time to prevent confusion due to time zone crossing. See the FDX1254 flight status page for this flight to view local times or setup timezone preferences in your user account.

Time Position Orientation Groundspeed Altitude Reporting Facility
EDT Latitude Longitude Course Direction KTS MPH feet Rate Location/Type
08:55PM 41.8250 -71.4810 296° West 261 300 6,000  Level FlightAware
08:55PM 41.8400 -71.5230 296° West 259 298 7,900 4,200 Climbing FlightAware
08:56PM 41.8550 -71.5640 296° West 258 297 9,900 3,600 Climbing FlightAware
08:56PM 41.8760 -71.6240 295° West 276 318 12,100 3,360 Climbing FlightAware
08:57PM 41.8890 -71.6860 286° West 273 314 14,400 3,480 Climbing FlightAware
08:58PM 41.9010 -71.7640 282° West 282 325 17,100 3,600 Climbing FlightAware
08:58PM 41.9190 -71.8460 286° West 292 336 19,800 3,120 Climbing FlightAware
08:59PM 41.9360 -71.9160 288° West 303 349 21,600 2,700 Climbing FlightAware
09:00PM 41.9500 -71.9770 287° West 314 361 23,400 1,740 Climbing FlightAware
09:01PM 41.9820 -72.0790 293° West 320 368 24,100 1,200 Climbing FlightAware
09:02PM 42.0470 -72.2810 293° West 415 478 26,200 1,500 Climbing FlightAware
09:03PM 42.0630 -72.3770 283° West 417 480 27,400 1,500 Climbing FlightAware
09:04PM 42.0910 -72.5520 282° West 432 497 28,700 2,400 Climbing FlightAware
09:04PM 42.1090 -72.6660 282° West 418 481 31,600 3,120 Climbing FlightAware
09:05PM 42.1260 -72.7790 282° West 421 484 33,200 2,580 Climbing FlightAware
09:06PM 42.1410 -72.8820 281° West 401 461 35,300 1,920 Climbing FlightAware
09:07PM 42.1570 -72.9950 281° West 407 468 36,000 480 Climbing FlightAware
09:07PM 42.1720 -73.0930 282° West 413 475 36,000  Level FlightAware
09:08PM 42.1870 -73.2150 279° West 414 476 36,000  Level FlightAware
09:09PM 42.1810 -73.3340 266° West 404 465 36,000 180 Level FlightAware
09:10PM 42.1760 -73.4420 266° West 406 467 36,300 660 Climbing FlightAware
09:10PM 42.1738 -73.4902 266° West 412 474 36,700 1,800 Climbing FlightAware ADS-B
09:11PM 42.1689 -73.5844 266° West 409 471 37,900 1,080 Climbing FlightAware ADS-B
09:11PM 42.1641 -73.6714 266° West 401 461 38,000 60 Climbing FlightAware ADS-B
09:12PM 42.1592 -73.7593 266° West 407 468 38,000  Level FlightAware ADS-B
09:12PM 42.1546 -73.8407 266° West 412 474 38,000  Level FlightAware ADS-B
09:13PM 42.1501 -73.9227 266° West 413 475 38,000  Level FlightAware ADS-B
09:13PM 42.1450 -74.0126 266° West 414 476 38,000  Level FlightAware ADS-B
09:14PM 42.1398 -74.1052 266° West 415 478 38,000  Level FlightAware ADS-B
09:15PM 42.1330 -74.2260 266° West 416 479 38,000  Level FlightAware
09:15PM 42.1282 -74.3012 265° West 417 480 38,000  Level FlightAware ADS-B
09:16PM 42.1224 -74.3974 265° West 419 482 38,000  Level FlightAware ADS-B
09:16PM 42.1175 -74.4755 265° West 420 483 38,000  Level FlightAware ADS-B
09:17PM 42.1127 -74.5563 265° West 422 486 38,000  Level FlightAware ADS-B
09:17PM 42.1075 -74.6376 265° West 424 488 38,000  Level FlightAware ADS-B
09:18PM 42.1017 -74.7296 265° West 424 488 38,000  Level FlightAware ADS-B
09:18PM 42.0967 -74.8083 265° West 424 488 38,000  Level FlightAware ADS-B
09:19PM 42.0914 -74.8922 265° West 423 487 38,000  Level FlightAware ADS-B
09:19PM 42.0861 -74.9733 265° West 423 487 38,000  Level FlightAware ADS-B
09:20PM 42.0793 -75.0749 265° West 421 484 38,000  Level FlightAware ADS-B
09:21PM 42.0740 -75.1556 265° West 419 482 38,000  Level FlightAware ADS-B
09:21PM 42.0686 -75.2333 265° West 418 481 38,000  Level FlightAware ADS-B
09:21PM 42.0651 -75.2771 264° West 417 480 38,000  Level FlightAware ADS-B
09:22PM 42.0518 -75.3388 254° West 414 476 38,000  Level FlightAware ADS-B
09:22PM 42.0404 -75.3715 245° Southwest 415 478 38,000  Level FlightAware ADS-B
09:23PM 42.0092 -75.4486 241° Southwest 416 479 38,000  Level FlightAware ADS-B
09:24PM 41.9610 -75.5640 241° Southwest 412 474 38,000  Level FlightAware
09:24PM 41.9200 -75.6630 241° Southwest 418 481 38,000  Level FlightAware
09:25PM 41.8809 -75.7563 241° Southwest 419 482 38,000  Level FlightAware ADS-B
09:25PM 41.8511 -75.8286 241° Southwest 418 481 38,000  Level FlightAware ADS-B
09:26PM 41.8203 -75.9012 240° Southwest 420 483 38,000  Level FlightAware ADS-B
09:27PM 41.7907 -75.9740 241° Southwest 421 484 38,000  Level FlightAware ADS-B
09:27PM 41.7603 -76.0446 240° Southwest 422 486 38,000  Level FlightAware ADS-B
09:28PM 41.7277 -76.1239 241° Southwest 421 484 38,000  Level FlightAware ADS-B
09:28PM 41.6970 -76.1963 240° Southwest 420 483 38,000  Level FlightAware ADS-B
09:29PM 41.6662 -76.2686 240° Southwest 419 482 38,000  Level FlightAware ADS-B
09:29PM 41.6359 -76.3405 241° Southwest 418 481 38,000  Level FlightAware ADS-B
09:30PM 41.6048 -76.4145 241° Southwest 417 480 38,000  Level FlightAware ADS-B
09:30PM 41.5718 -76.4904 240° Southwest 416 479 38,000  Level FlightAware ADS-B
09:31PM 41.5426 -76.5597 241° Southwest 417 480 38,000  Level FlightAware ADS-B
09:31PM 41.5127 -76.6288 240° Southwest 416 479 38,000  Level FlightAware ADS-B
09:32PM 41.4821 -76.7021 241° Southwest 416 479 38,000  Level FlightAware ADS-B
09:32PM 41.4524 -76.7710 240° Southwest 416 479 38,000  Level FlightAware ADS-B
09:33PM 41.4225 -76.8398 240° Southwest 417 480 38,000  Level FlightAware ADS-B
09:34PM 41.3858 -76.9245 240° Southwest 417 480 38,000  Level FlightAware ADS-B
09:34PM 41.3549 -76.9957 240° Southwest 419 482 38,000  Level FlightAware ADS-B
09:35PM 41.3190 -77.0786 240° Southwest 422 486 38,000  Level FlightAware ADS-B
09:35PM 41.2891 -77.1481 240° Southwest 422 486 38,000  Level FlightAware ADS-B
09:36PM 41.2430 -77.2538 240° Southwest 424 488 38,000  Level FlightAware ADS-B
09:37PM 41.1940 -77.3640 239° Southwest 425 489 38,000  Level FlightAware
09:38PM 41.1520 -77.4610 240° Southwest 425 489 38,000  Level FlightAware
09:38PM 41.1335 -77.5015 239° Southwest 424 488 38,000  Level FlightAware ADS-B
09:39PM 41.0628 -77.6620 240° Southwest 427 491 38,000  Level FlightAware ADS-B
09:40PM 41.0230 -77.7540 240° Southwest 428 493 38,000  Level FlightAware
09:40PM 40.9820 -77.8420 238° Southwest 428 493 38,000  Level FlightAware
09:41PM 40.9360 -77.9460 240° Southwest 429 494 38,000  Level FlightAware
09:42PM 40.9150 -78.0450 254° West 418 481 38,000  Level FlightAware
09:43PM 40.9110 -78.1460 267° West 414 476 38,000  Level FlightAware
09:43PM 40.9080 -78.2570 268° West 412 474 38,000  Level FlightAware
09:44PM 40.9040 -78.3570 267° West 410 472 38,000  Level FlightAware
09:45PM 40.9000 -78.4710 267° West 407 468 38,000  Level FlightAware
09:45PM 40.8970 -78.5710 268° West 406 467 38,000  Level FlightAware
09:46PM 40.8930 -78.6650 267° West 405 466 38,000  Level FlightAware
09:47PM 40.8890 -78.7710 267° West 404 465 38,000  Level FlightAware
09:47PM 40.8850 -78.8790 267° West 403 464 38,000  Level FlightAware
09:48PM 40.8810 -78.9770 267° West 402 463 38,000  Level FlightAware
09:49PM 40.8780 -79.0510 267° West 38,000  Level FlightAware
09:49PM 40.8730 -79.1710 267° West 401 461 38,000  Level FlightAware
09:50PM 40.8680 -79.2950 267° West 402 463 38,000  Level FlightAware
09:51PM 40.8640 -79.3880 267° West 402 463 38,000  Level FlightAware
09:52PM 40.8590 -79.4910 266° West 403 464 38,000  Level FlightAware
09:52PM 40.8540 -79.6020 267° West 403 464 38,000  Level FlightAware
09:53PM 40.8500 -79.6900 267° West 401 461 38,000  Level FlightAware
09:54PM 40.8450 -79.8050 267° West 400 460 38,000  Level FlightAware
09:54PM 40.8400 -79.9050 266° West 400 460 38,000  Level FlightAware
09:55PM 40.8350 -80.0100 266° West 401 461 38,000  Level FlightAware
09:56PM 40.8300 -80.1100 266° West 402 463 38,000  Level FlightAware
09:56PM 40.8260 -80.1960 267° West 405 466 38,000  Level FlightAware
09:57PM 40.8310 -80.3320 273° West 406 467 38,000  Level FlightAware
09:58PM 40.8360 -80.4310 274° West 407 468 38,000  Level FlightAware
09:59PM 40.8410 -80.5310 274° West 410 472 38,000  Level FlightAware
09:59PM 40.8470 -80.6440 274° West 412 474 38,000  Level FlightAware
10:00PM 40.8510 -80.7290 274° West 414 476 38,000  Level FlightAware
10:01PM 40.8570 -80.8560 274° West 415 478 38,000  Level FlightAware
10:01PM 40.8620 -80.9590 274° West 416 479 38,000  Level FlightAware
10:02PM 40.8670 -81.0730 273° West 417 480 38,000  Level FlightAware
10:03PM 40.8720 -81.1750 274° West 417 480 38,000  Level FlightAware
10:04PM 40.8760 -81.2790 273° West 417 480 38,000  Level FlightAware
10:04PM 40.8810 -81.3890 273° West 418 481 38,000  Level FlightAware
10:05PM 40.8850 -81.4810 273° West 418 481 38,000  Level FlightAware
10:06PM 40.8900 -81.5930 273° West 419 482 38,000  Level FlightAware
10:06PM 40.8940 -81.7110 273° West 420 483 38,000  Level FlightAware
10:07PM 40.8960 -81.8130 272° West 419 482 38,000  Level FlightAware
10:08PM 40.8980 -81.9250 271° West 416 479 38,000  Level FlightAware
10:08PM 40.9000 -82.0320 271° West 415 478 38,000  Level FlightAware
10:09PM 40.9030 -82.1430 272° West 411 473 38,000  Level FlightAware
10:10PM 40.9050 -82.2420 272° West 406 467 38,000  Level FlightAware
10:11PM 40.9060 -82.3400 271° West 401 461 38,000  Level FlightAware
10:12PM 40.9090 -82.4840 272° West 395 455 38,000  Level FlightAware
10:12PM 40.9140 -82.5840 274° West 393 452 38,000  Level FlightAware
10:13PM 40.9170 -82.6680 273° West 392 451 38,000  Level FlightAware
10:14PM 40.9220 -82.7880 273° West 392 451 38,000  Level FlightAware
10:14PM 40.9250 -82.8810 272° West 392 451 38,000  Level FlightAware
10:15PM 40.9290 -82.9750 273° West 392 451 38,000 -180 Level FlightAware
10:16PM 40.9320 -83.0820 272° West 393 452 37,800 -780 Descending FlightAware
10:16PM 40.9360 -83.1810 273° West 392 451 36,900 -2,160 Descending FlightAware
10:17PM 40.9390 -83.2910 272° West 393 452 34,800 -3,000 Descending FlightAware
10:18PM 40.9420 -83.3820 273° West 397 457 32,700 -2,640 Descending FlightAware
10:19PM 40.9460 -83.4920 273° West 400 460 31,100 -3,060 Descending FlightAware
10:19PM 40.9490 -83.5900 272° West 406 467 28,400 -4,140 Descending FlightAware
10:20PM 40.9520 -83.7070 272° West 417 480 25,300 -3,720 Descending FlightAware
10:21PM 40.9550 -83.8060 272° West 401 461 23,200 -3,180 Descending FlightAware
10:21PM 40.9580 -83.9030 272° West 389 448 21,100 -3,300 Descending FlightAware
10:22PM 40.9610 -84.0060 272° West 378 435 18,600 -3,180 Descending FlightAware
10:23PM 40.9630 -84.0960 272° West 366 421 16,600 -3,420 Descending FlightAware
10:23PM 40.9650 -84.1850 272° West 357 411 14,100 -3,420 Descending FlightAware
10:24PM 40.9670 -84.2840 272° West 351 404 11,800 -2,100 Descending FlightAware
10:25PM 40.9690 -84.3730 272° West 312 359 11,000 -900 Descending FlightAware
10:26PM 40.9700 -84.4450 271° West 274 315 10,600 -300 Descending FlightAware
10:26PM 40.9710 -84.5130 271° West 262 302 10,600 -720 Level FlightAware
10:27PM 40.9760 -84.5720 276° West 251 289 9,700 -1,800 Descending FlightAware
10:27PM 40.9880 -84.6150 290° West 251 289 8,500 -2,100 Descending FlightAware
10:28PM 41.0010 -84.6590 291° West 255 293 7,600 -1,860 Descending FlightAware
10:28PM 41.0120 -84.6940 293° West 261 300 6,800 -1,740 Descending FlightAware
10:29PM 41.0220 -84.7260 293° West 259 298 6,300 -1,320 Descending FlightAware
10:30PM 41.0511 -84.8267 293° West 254 292 4,800 -1,320 Descending Chicago Center
10:31PM 41.0414 -84.9147 262° West 246 283 3,400 -960 Descending Chicago Center
10:32PM 41.0403 -84.9897 269° West 226 260 2,900 -540 Descending Chicago Center
10:33PM 41.0483 -85.0503 280° West 196 226 2,300 -300 Descending Chicago Center
10:34PM 41.0419 -85.1061 261° West 179 206 2,300 -300 Level Chicago Center
10:35PM 41.0122 -85.1492 228° Southwest 163 188 1,700 -600 Descending Chicago Center